METAR Data
IDs: Format: Raw Decoded Include TAF

Data at: 1602 UTC 21 Sep 2018

KAGS 202153Z 13006KT 10SM SCT065 32/19 A3006 RMK AO2 SLP178 T03220194
KAGS 202053Z 17005KT 10SM SCT060 33/19 A3006 RMK AO2 SLP177 T03330194 56014
KAGS 201953Z 10005KT 10SM FEW060 34/19 A3006 RMK AO2 SLP178 T03390189
KAGS 201855Z 00000KT 10SM CLR 34/18 A3008 RMK AO2 T03390183
KAGS 201853Z 10SM CLR 34/18 A3008 RMK AO2 SLP184 T03390183
KAGS 201753Z 00000KT 10SM CLR 33/20 A3010 RMK AO2 SLP191 T03330200 10333 20194 58016
KAGS 201653Z VRB05KT 10SM FEW045 32/21 A3013 RMK AO2 SLP199 T03220211
KAGS 201553Z 16004KT 10SM CLR 31/20 A3015 RMK AO2 SLP207 T03110200
KAGS 201453Z 00000KT 10SM CLR 30/21 A3015 RMK AO2 SLP207 T03000211 51018
KAGS 201353Z 03003KT 10SM CLR 27/22 A3013 RMK AO2 SLP202 T02720217
KAGS 201253Z 00000KT 7SM CLR 23/22 A3012 RMK AO2 SLP197 T02280217
KAGS 201153Z 00000KT 6SM BR CLR 19/19 A3010 RMK AO2 SLP189 T01940194 10211 20189 53019
KAGS 201053Z 00000KT 6SM BCFG CLR 19/19 A3006 RMK AO2 SLP178 T01940189
KAGS 201048Z 00000KT 6SM BCFG CLR 19/19 A3006 RMK AO2
KAGS 201041Z 00000KT 1SM BR VV003 19/19 A3006 RMK AO2 T01890189 RVRNO
KAGS 201016Z 00000KT 1/4SM FG VV003 19/19 A3005 RMK AO2 T01940189 RVRNO
KAGS 201001Z 00000KT 3/4SM BR VV004 20/19 A3004 RMK AO2 T02000194 RVRNO
KAGS 200955Z 00000KT 1 3/4SM BR FEW004 20/19 A3004 RMK AO2 T02000194
KAGS 200953Z 00000KT 2SM BR CLR 20/19 A3004 RMK AO2 SLP170 T02000194
KAGS 200915Z 00000KT 3SM BR CLR 20/20 A3003 RMK AO2 T02000200
KAGS 200913Z 00000KT 1 1/4SM BR CLR 20/20 A3003 RMK AO2 T02000200
KAGS 200901Z 00000KT 1/4SM FG CLR 20/19 A3003 RMK AO2 T02000194 RVRNO
KAGS 200853Z 00000KT 1 1/2SM BR CLR 20/19 A3003 RMK AO2 SLP166 T02000194 53003
KAGS 200809Z 00000KT 6SM BR CLR 20/20 A3002 RMK AO2 T02000200
KAGS 200802Z 00000KT 2 1/2SM BR CLR 20/20 A3002 RMK AO2 T02000200
KAGS 200753Z 00000KT 1/2SM FG CLR 21/20 A3002 RMK AO2 SLP163 T02060200 RVRNO
KAGS 200751Z 00000KT 1/2SM FG CLR 21/20 A3002 RMK AO2 RVRNO
KAGS 200741Z 00000KT 1 3/4SM BR CLR 21/20 A3002 RMK AO2 T02060200
KAGS 200653Z 00000KT 6SM BR CLR 21/20 A3002 RMK AO2 SLP164 T02060200
KAGS 200633Z 00000KT 7SM CLR 21/21 A3002 RMK AO2 T02110206
KAGS 200626Z 22003KT 2SM BR CLR 21/21 A3002 RMK AO2 T02060206
KAGS 200619Z 00000KT 3/4SM BR VV003 21/21 A3002 RMK AO2 T02110206 RVRNO
KAGS 200612Z 00000KT 1SM BR VV003 21/21 A3002 RMK AO2 T02060206 RVRNO
KAGS 200610Z 00000KT 1 3/4SM BR CLR 21/21 A3002 RMK AO2 T02060206
KAGS 200553Z 00000KT 8SM CLR 21/21 A3002 RMK AO2 SLP165 T02110206 10261 20211 50005
KAGS 200541Z 00000KT 3SM BR CLR 21/21 A3003 RMK AO2 T02110206
KAGS 200535Z 00000KT 1 1/2SM BR CLR 22/21 A3003 RMK AO2 VIS 1/2V5 T02170211
KAGS 200453Z 00000KT 9SM CLR 22/21 A3003 RMK AO2 SLP167 T02220211 403440211